Main page
METAR-TAF:

METAR-TAF

Airports :

Al Najaf International Airport

Najaf, Iraq

latitude: 31-59-23N, longitude: 44-24-15E, elevation: 31 m

Current weather observation

The report was made 21 minutes ago, at 04:00 UTC
Wind 8 kt from the Northeast
Temperature 26°C
Humidity 39%
Pressure 1013 hPa
Visibility: 6000 m
Broken clouds at a height of 4000 ft

METAR: ORNI 170400Z 04008KT 6000 BKN040 26/11 Q1013 NOSIG

Time: 07:21 (04:21 UTC)

Forecast

The report was made 6 hours and 21 minutes ago, at 22:00 UTC
Forecast valid from 17 at 00 UTC to 17 at 24 UTC
Wind 8 kt from the South/Southeast
Visibility: 6000 m
Scattered clouds at a height of 4000 ft
Becoming
from 17 at 04 UTC to 17 at 06 UTC
Visibility: 3000 m
widespread dust

TAF: ORNI 162200Z 1700/1724 16008KT 6000 SCT040 BECMG 1704/1706 3000 DU

Weather observations and forecasts of more than 4000 airports (METAR and TAF reports).

The available stations are represented by yellow and red dots on the map.

Hover mouse over dot to see the name of the station.

Then click to see weather observations and forecasts.

To change the map : click on the green buttons with a black cross to zoom in, on the green button with a dash to zoom out, or on the green arrows for adjacent maps.


METAR-TAF: